createdAt,value
2019-01-24T00:00:02.081Z,1004.55
2019-01-24T00:01:02.097Z,1004.52
2019-01-24T00:02:02.121Z,1004.54
2019-01-24T00:03:02.145Z,1004.56
2019-01-24T00:04:02.172Z,1004.57
2019-01-24T00:05:02.197Z,1004.58
2019-01-24T00:06:02.227Z,1004.58
2019-01-24T00:07:02.249Z,1004.61
2019-01-24T00:08:02.277Z,1004.65
2019-01-24T00:09:02.301Z,1004.63
2019-01-24T00:10:02.329Z,1004.63
2019-01-24T00:11:02.367Z,1004.68
2019-01-24T00:12:02.381Z,1004.62
2019-01-24T00:13:02.413Z,1004.67
2019-01-24T00:14:02.434Z,1004.74
2019-01-24T00:15:02.462Z,1004.67
2019-01-24T00:16:02.488Z,1004.72
2019-01-24T00:17:02.514Z,1004.71
2019-01-24T00:18:02.538Z,1004.71
2019-01-24T00:19:02.564Z,1004.72
2019-01-24T00:20:02.591Z,1004.71
2019-01-24T00:21:02.619Z,1004.74
2019-01-24T00:22:02.644Z,1004.75
2019-01-24T00:23:02.670Z,1004.72
2019-01-24T00:24:02.696Z,1004.77
2019-01-24T00:25:02.725Z,1004.75
2019-01-24T00:26:02.750Z,1004.72
2019-01-24T00:27:02.773Z,1004.72
2019-01-24T00:28:02.802Z,1004.71
2019-01-24T00:29:02.833Z,1004.77
2019-01-24T00:30:02.855Z,1004.78
2019-01-24T00:31:02.879Z,1004.75
2019-01-24T00:32:02.906Z,1004.78
2019-01-24T00:33:02.933Z,1004.75
2019-01-24T00:34:02.963Z,1004.72
2019-01-24T00:35:02.983Z,1004.73
2019-01-24T00:36:03.011Z,1004.75
2019-01-24T00:37:03.036Z,1004.77
2019-01-24T00:38:03.064Z,1004.79
2019-01-24T00:39:03.089Z,1004.77
2019-01-24T00:40:03.119Z,1004.80
2019-01-24T00:41:03.140Z,1004.84
2019-01-24T00:42:03.167Z,1004.83
2019-01-24T00:43:03.193Z,1004.83
2019-01-24T00:44:03.221Z,1004.83
2019-01-24T00:45:03.246Z,1004.88
2019-01-24T00:46:03.274Z,1004.91
2019-01-24T00:47:03.299Z,1004.88
2019-01-24T00:48:03.326Z,1004.92
2019-01-24T00:49:03.350Z,1004.95
2019-01-24T00:50:03.377Z,1004.90
2019-01-24T00:51:03.406Z,1004.92
2019-01-24T00:52:03.430Z,1004.90
2019-01-24T00:53:03.456Z,1004.96
2019-01-24T00:54:03.481Z,1004.95
2019-01-24T00:55:03.509Z,1004.87
2019-01-24T00:56:03.536Z,1004.91
2019-01-24T00:57:03.561Z,1004.89
2019-01-24T00:58:03.589Z,1004.94
2019-01-24T00:59:03.617Z,1004.89
2019-01-24T01:00:03.641Z,1004.86
2019-01-24T01:01:03.668Z,1004.94
2019-01-24T01:02:03.692Z,1004.85
2019-01-24T01:03:03.720Z,1004.95
2019-01-24T01:04:03.745Z,1004.96
2019-01-24T01:05:03.770Z,1005.00
2019-01-24T01:06:03.797Z,1005.01
2019-01-24T01:07:03.822Z,1004.99
2019-01-24T01:08:03.849Z,1005.00
2019-01-24T01:09:03.877Z,1005.03
2019-01-24T01:10:03.902Z,1005.00
2019-01-24T01:11:03.928Z,1005.03
2019-01-24T01:12:03.954Z,1005.08
2019-01-24T01:13:03.982Z,1005.08
2019-01-24T01:14:04.009Z,1005.11
2019-01-24T01:15:04.035Z,1005.09
2019-01-24T01:16:04.063Z,1005.10
2019-01-24T01:17:04.087Z,1005.12
2019-01-24T01:18:04.112Z,1005.12
2019-01-24T01:19:04.137Z,1005.12
2019-01-24T01:20:04.165Z,1005.12
2019-01-24T01:21:04.189Z,1005.13
2019-01-24T01:22:04.216Z,1005.13
2019-01-24T01:23:04.243Z,1005.12
2019-01-24T01:24:04.269Z,1005.15
2019-01-24T01:25:04.294Z,1005.15
2019-01-24T01:26:04.324Z,1005.17
2019-01-24T01:27:04.348Z,1005.17
2019-01-24T01:28:04.375Z,1005.18
2019-01-24T01:29:04.400Z,1005.21
2019-01-24T01:30:04.428Z,1005.18
2019-01-24T01:31:04.454Z,1005.22
2019-01-24T01:32:04.480Z,1005.17
2019-01-24T01:33:04.505Z,1005.20
2019-01-24T01:34:04.532Z,1005.18
2019-01-24T01:35:04.559Z,1005.24
2019-01-24T01:36:04.584Z,1005.21
2019-01-24T01:37:04.608Z,1005.23
2019-01-24T01:38:04.635Z,1005.23
2019-01-24T01:39:04.661Z,1005.25
2019-01-24T01:40:04.688Z,1005.28
2019-01-24T01:41:04.712Z,1005.28
2019-01-24T01:42:04.741Z,1005.33
2019-01-24T01:43:04.767Z,1005.35
2019-01-24T01:44:04.794Z,1005.33
2019-01-24T01:45:04.819Z,1005.34
2019-01-24T01:46:04.847Z,1005.35
2019-01-24T01:47:04.874Z,1005.39
2019-01-24T01:48:04.898Z,1005.31
2019-01-24T01:49:04.924Z,1005.32
2019-01-24T01:50:04.949Z,1005.33
2019-01-24T01:51:04.976Z,1005.26
2019-01-24T01:52:05.003Z,1005.29
2019-01-24T01:53:05.029Z,1005.25
2019-01-24T01:54:05.056Z,1005.26
2019-01-24T01:55:05.082Z,1005.26
2019-01-24T01:56:05.107Z,1005.29
2019-01-24T01:57:05.134Z,1005.27
2019-01-24T01:58:05.160Z,1005.32
2019-01-24T01:59:05.186Z,1005.32
2019-01-24T02:00:05.223Z,1005.29
2019-01-24T02:01:05.240Z,1005.29
2019-01-24T02:02:05.267Z,1005.26
2019-01-24T02:03:05.292Z,1005.28
2019-01-24T02:04:05.320Z,1005.28
2019-01-24T02:05:05.345Z,1005.31
2019-01-24T02:06:05.375Z,1005.32
2019-01-24T02:07:05.398Z,1005.33
2019-01-24T02:08:05.425Z,1005.32
2019-01-24T02:09:05.451Z,1005.30
2019-01-24T02:10:05.475Z,1005.34
2019-01-24T02:11:05.501Z,1005.30
2019-01-24T02:12:05.529Z,1005.27
2019-01-24T02:13:05.554Z,1005.30
2019-01-24T02:14:05.580Z,1005.30
2019-01-24T02:15:05.606Z,1005.31
2019-01-24T02:16:05.634Z,1005.30
2019-01-24T02:17:05.658Z,1005.31
2019-01-24T02:18:05.686Z,1005.26
2019-01-24T02:19:05.712Z,1005.30
2019-01-24T02:20:05.741Z,1005.30
2019-01-24T02:21:05.765Z,1005.33
2019-01-24T02:22:05.797Z,1005.30
2019-01-24T02:23:05.815Z,1005.31
2019-01-24T02:24:05.844Z,1005.30
2019-01-24T02:25:05.870Z,1005.29
2019-01-24T02:26:05.897Z,1005.30
2019-01-24T02:27:05.922Z,1005.27
2019-01-24T02:28:05.948Z,1005.31
2019-01-24T02:29:13.133Z,1005.28
2019-01-24T02:31:09.999Z,1005.28
2019-01-24T02:32:10.020Z,1005.33
2019-01-24T02:34:14.035Z,1005.27
2019-01-24T02:35:14.055Z,1005.26
2019-01-24T02:37:18.102Z,1005.28
2019-01-24T02:38:18.103Z,1005.27
2019-01-24T02:40:11.046Z,1005.31
2019-01-24T02:41:11.067Z,1005.31
2019-01-24T02:43:15.089Z,1005.37
2019-01-24T02:44:15.113Z,1005.34
2019-01-24T02:46:19.154Z,1005.37
2019-01-24T02:47:19.149Z,1005.38
2019-01-24T02:49:23.171Z,1005.43
2019-01-24T02:50:23.195Z,1005.42
2019-01-24T02:52:27.225Z,1005.43
2019-01-24T02:53:27.233Z,1005.47
2019-01-24T02:55:31.243Z,1005.46
2019-01-24T02:56:31.275Z,1005.40
2019-01-24T02:58:24.401Z,1005.48
2019-01-24T02:59:24.425Z,1005.45
2019-01-24T03:01:17.579Z,1005.45
2019-01-24T03:02:17.589Z,1005.45
2019-01-24T03:04:21.618Z,1005.46
2019-01-24T03:05:21.641Z,1005.44
2019-01-24T03:07:14.795Z,1005.49
2019-01-24T03:08:14.801Z,1005.42
2019-01-24T03:10:07.756Z,1005.45
2019-01-24T03:11:07.778Z,1005.38
2019-01-24T03:13:00.930Z,1005.39
2019-01-24T03:14:00.943Z,1005.37
2019-01-24T03:16:04.961Z,1005.33
2019-01-24T03:17:04.984Z,1005.33
2019-01-24T03:19:09.000Z,1005.35
2019-01-24T03:20:09.020Z,1005.35
2019-01-24T03:22:13.057Z,1005.32
2019-01-24T03:23:13.065Z,1005.39
2019-01-24T03:25:17.086Z,1005.40
2019-01-24T03:26:17.108Z,1005.39
2019-01-24T03:28:21.120Z,1005.40
2019-01-24T03:29:21.143Z,1005.40
2019-01-24T03:31:25.192Z,1005.37
2019-01-24T03:32:25.181Z,1005.40
2019-01-24T03:34:18.319Z,1005.37
2019-01-24T03:35:18.338Z,1005.41
2019-01-24T03:37:22.418Z,1005.42
2019-01-24T03:38:22.383Z,1005.46
2019-01-24T03:40:26.392Z,1005.46
2019-01-24T03:41:26.414Z,1005.50
2019-01-24T03:43:30.437Z,1005.49
2019-01-24T03:44:30.462Z,1005.48
2019-01-24T03:46:34.473Z,1005.45
2019-01-24T03:47:34.495Z,1005.47
2019-01-24T03:49:27.448Z,1005.50
2019-01-24T03:50:27.454Z,1005.52
2019-01-24T03:52:31.466Z,1005.54
2019-01-24T03:53:31.492Z,1005.55
2019-01-24T03:55:35.506Z,1005.56
2019-01-24T03:56:35.530Z,1005.55
2019-01-24T03:58:39.543Z,1005.54
2019-01-24T03:59:39.565Z,1005.58
2019-01-24T04:01:43.578Z,1005.59
2019-01-24T04:02:43.603Z,1005.61
2019-01-24T04:04:47.632Z,1005.60
2019-01-24T04:05:47.636Z,1005.61
2019-01-24T04:07:51.651Z,1005.64
2019-01-24T04:08:51.675Z,1005.68
2019-01-24T04:10:55.700Z,1005.68
2019-01-24T04:11:55.720Z,1005.68
2019-01-24T04:13:59.755Z,1005.69
2019-01-24T04:14:59.761Z,1005.67
2019-01-24T04:17:03.780Z,1005.71
2019-01-24T04:18:03.801Z,1005.71
2019-01-24T04:19:56.765Z,1005.73
2019-01-24T04:20:56.770Z,1005.78
2019-01-24T04:23:00.789Z,1005.80
2019-01-24T04:24:00.811Z,1005.78
2019-01-24T04:26:04.834Z,1005.78
2019-01-24T04:27:04.853Z,1005.77
2019-01-24T04:29:08.890Z,1005.80
2019-01-24T04:30:08.897Z,1005.79
2019-01-24T04:32:12.914Z,1005.81
2019-01-24T04:33:12.934Z,1005.76
2019-01-24T04:35:19.936Z,1005.78
2019-01-24T04:36:16.975Z,1005.77
2019-01-24T04:38:20.988Z,1005.70
2019-01-24T04:39:21.011Z,1005.71
2019-01-24T04:41:25.037Z,1005.70
2019-01-24T04:42:25.054Z,1005.71
2019-01-24T04:44:29.104Z,1005.69
2019-01-24T04:45:29.092Z,1005.72
2019-01-24T04:47:33.114Z,1005.73
2019-01-24T04:48:33.138Z,1005.76
2019-01-24T04:50:37.172Z,1005.77
2019-01-24T04:51:37.193Z,1005.76
2019-01-24T04:53:41.208Z,1005.80
2019-01-24T04:54:41.234Z,1005.81
2019-01-24T04:56:45.275Z,1005.82
2019-01-24T04:57:45.293Z,1005.82
2019-01-24T04:59:38.229Z,1005.85
2019-01-24T05:00:38.254Z,1005.90
2019-01-24T05:02:42.288Z,1005.93
2019-01-24T05:03:42.287Z,1005.96
2019-01-24T05:05:46.313Z,1005.93
2019-01-24T05:06:46.325Z,1006.00
2019-01-24T05:08:50.351Z,1006.02
2019-01-24T05:09:50.373Z,1006.04
2019-01-24T05:11:54.392Z,1006.05
2019-01-24T05:12:54.410Z,1006.08
2019-01-24T05:14:58.457Z,1006.09
2019-01-24T05:15:58.469Z,1006.07
2019-01-24T05:18:02.486Z,1006.06
2019-01-24T05:19:02.511Z,1006.07
2019-01-24T05:21:06.530Z,1006.09
2019-01-24T05:22:06.553Z,1006.08
2019-01-24T05:23:59.690Z,1006.11
2019-01-24T05:24:59.714Z,1006.11
2019-01-24T05:27:03.730Z,1006.13
2019-01-24T05:28:03.752Z,1006.14
2019-01-24T05:29:56.718Z,1006.15
2019-01-24T05:30:56.723Z,1006.15
2019-01-24T05:33:00.746Z,1006.16
2019-01-24T05:34:00.769Z,1006.16
2019-01-24T05:36:04.792Z,1006.15
2019-01-24T05:37:04.815Z,1006.16
2019-01-24T05:38:57.956Z,1006.17
2019-01-24T05:39:57.976Z,1006.18
2019-01-24T05:42:01.997Z,1006.22
2019-01-24T05:43:02.025Z,1006.21
2019-01-24T05:45:06.046Z,1006.20
2019-01-24T05:46:06.070Z,1006.21
2019-01-24T05:48:10.087Z,1006.20
2019-01-24T05:49:10.111Z,1006.22
2019-01-24T05:51:14.140Z,1006.28
2019-01-24T05:52:19.354Z,1006.27
2019-01-24T05:54:18.166Z,1006.27
2019-01-24T05:55:18.190Z,1006.26
2019-01-24T05:57:22.224Z,1006.32
2019-01-24T05:58:22.228Z,1006.34
2019-01-24T06:00:26.251Z,1006.37
2019-01-24T06:01:26.275Z,1006.36
2019-01-24T06:03:30.296Z,1006.32
2019-01-24T06:04:30.317Z,1006.36
2019-01-24T06:06:34.334Z,1006.34
2019-01-24T06:07:34.355Z,1006.37
2019-01-24T06:09:27.297Z,1006.42
2019-01-24T06:10:27.316Z,1006.45
2019-01-24T06:12:31.478Z,1006.48
2019-01-24T06:13:31.359Z,1006.54
2019-01-24T06:15:35.379Z,1006.48
2019-01-24T06:16:35.404Z,1006.47
2019-01-24T06:18:39.422Z,1006.44
2019-01-24T06:19:39.445Z,1006.45
2019-01-24T06:21:43.463Z,1006.42
2019-01-24T06:22:43.483Z,1006.44
2019-01-24T06:24:47.522Z,1006.47
2019-01-24T06:25:47.526Z,1006.51
2019-01-24T06:27:51.549Z,1006.58
2019-01-24T06:28:51.571Z,1006.58
2019-01-24T06:30:55.593Z,1006.63
2019-01-24T06:31:55.614Z,1006.64
2019-01-24T06:33:59.633Z,1006.68
2019-01-24T06:34:59.656Z,1006.69
2019-01-24T06:37:03.671Z,1006.64
2019-01-24T06:38:03.696Z,1006.70
2019-01-24T06:39:56.651Z,1006.71
2019-01-24T06:40:56.654Z,1006.75
2019-01-24T06:43:00.674Z,1006.71
2019-01-24T06:44:00.698Z,1006.74
2019-01-24T06:46:04.715Z,1006.80
2019-01-24T06:47:04.735Z,1006.80
2019-01-24T06:49:08.779Z,1006.85
2019-01-24T06:50:08.801Z,1006.82
2019-01-24T06:52:13.321Z,1006.92
2019-01-24T06:53:13.342Z,1006.93
2019-01-24T06:54:13.371Z,1006.94
2019-01-24T06:55:13.395Z,1006.94
2019-01-24T06:56:13.427Z,1006.98
2019-01-24T06:57:13.451Z,1006.99
2019-01-24T06:58:13.473Z,1006.96
2019-01-24T06:59:13.500Z,1006.98
2019-01-24T07:00:13.526Z,1007.02
2019-01-24T07:01:13.554Z,1007.02
2019-01-24T07:02:13.579Z,1007.04
2019-01-24T07:03:13.604Z,1007.04
2019-01-24T07:04:13.631Z,1007.04
2019-01-24T07:05:13.656Z,1007.05
2019-01-24T07:06:13.682Z,1007.02
2019-01-24T07:07:13.708Z,1007.00
2019-01-24T07:08:13.736Z,1007.06
2019-01-24T07:09:13.762Z,1007.04
2019-01-24T07:10:13.786Z,1007.02
2019-01-24T07:11:13.813Z,1007.03
2019-01-24T07:12:13.840Z,1007.02
2019-01-24T07:13:13.865Z,1007.04
2019-01-24T07:14:13.892Z,1007.04
2019-01-24T07:15:13.920Z,1007.07
2019-01-24T07:16:13.946Z,1007.06
2019-01-24T07:17:13.970Z,1007.06
2019-01-24T07:18:13.998Z,1007.03
2019-01-24T07:19:14.022Z,1007.04
2019-01-24T07:20:14.049Z,1007.06
2019-01-24T07:21:14.074Z,1007.00
2019-01-24T07:22:14.101Z,1007.04
2019-01-24T07:23:14.126Z,1007.02
2019-01-24T07:24:14.154Z,1007.06
2019-01-24T07:25:14.178Z,1007.08
2019-01-24T07:26:14.206Z,1007.07
2019-01-24T07:27:14.235Z,1007.05
2019-01-24T07:28:14.261Z,1007.07
2019-01-24T07:29:14.285Z,1007.07
2019-01-24T07:30:14.311Z,1007.04
2019-01-24T07:31:14.338Z,1007.06
2019-01-24T07:32:14.364Z,1007.10
2019-01-24T07:33:14.389Z,1007.08
2019-01-24T07:34:14.414Z,1007.12
2019-01-24T07:35:14.441Z,1007.13
2019-01-24T07:36:14.467Z,1007.09
2019-01-24T07:37:14.494Z,1007.11
2019-01-24T07:38:14.522Z,1007.10
2019-01-24T07:39:14.545Z,1007.09
2019-01-24T07:40:14.574Z,1007.08
2019-01-24T07:41:14.599Z,1007.14
2019-01-24T07:42:14.626Z,1007.15
2019-01-24T07:43:15.723Z,1007.17
2019-01-24T07:44:14.679Z,1007.19
2019-01-24T07:45:14.703Z,1007.24
2019-01-24T07:46:14.729Z,1007.26
2019-01-24T07:47:14.755Z,1007.29
2019-01-24T07:48:14.784Z,1007.29
2019-01-24T07:49:14.809Z,1007.32
2019-01-24T07:50:14.834Z,1007.29
2019-01-24T07:51:14.861Z,1007.36
2019-01-24T07:52:14.887Z,1007.36
2019-01-24T07:53:14.913Z,1007.39
2019-01-24T07:54:14.939Z,1007.45
2019-01-24T07:55:14.965Z,1007.45
2019-01-24T07:56:15.001Z,1007.46
2019-01-24T07:57:15.017Z,1007.51
2019-01-24T07:58:15.043Z,1007.49
2019-01-24T07:59:15.072Z,1007.49
2019-01-24T08:00:15.098Z,1007.51
2019-01-24T08:01:15.122Z,1007.50
2019-01-24T08:02:15.149Z,1007.47
2019-01-24T08:03:15.176Z,1007.48
2019-01-24T08:04:15.202Z,1007.46
2019-01-24T08:05:15.229Z,1007.45
2019-01-24T08:06:15.267Z,1007.47
2019-01-24T08:07:15.280Z,1007.47
2019-01-24T08:08:15.307Z,1007.45
2019-01-24T08:09:15.332Z,1007.45
2019-01-24T08:10:15.360Z,1007.49
2019-01-24T08:11:15.385Z,1007.48
2019-01-24T08:12:15.414Z,1007.51
2019-01-24T08:13:15.436Z,1007.49
2019-01-24T08:14:15.464Z,1007.50
2019-01-24T08:15:15.491Z,1007.49
2019-01-24T08:16:15.518Z,1007.53
2019-01-24T08:17:15.542Z,1007.52
2019-01-24T08:18:15.573Z,1007.49
2019-01-24T08:19:15.595Z,1007.44
2019-01-24T08:20:15.620Z,1007.42
2019-01-24T08:21:15.647Z,1007.46
2019-01-24T08:22:15.673Z,1007.46
2019-01-24T08:23:15.701Z,1007.44
2019-01-24T08:24:15.725Z,1007.39
2019-01-24T08:25:15.751Z,1007.39
2019-01-24T08:26:15.779Z,1007.46
2019-01-24T08:27:15.808Z,1007.47
2019-01-24T08:28:15.834Z,1007.47
2019-01-24T08:29:15.860Z,1007.51
2019-01-24T08:30:15.885Z,1007.52
2019-01-24T08:31:15.912Z,1007.55
2019-01-24T08:32:15.940Z,1007.51
2019-01-24T08:33:15.962Z,1007.53
2019-01-24T08:34:15.988Z,1007.55
2019-01-24T08:35:16.016Z,1007.52
2019-01-24T08:36:16.040Z,1007.51
2019-01-24T08:37:16.065Z,1007.52
2019-01-24T08:38:16.092Z,1007.54
2019-01-24T08:39:16.119Z,1007.49
2019-01-24T08:40:16.146Z,1007.54
2019-01-24T08:41:16.172Z,1007.54
2019-01-24T08:42:16.198Z,1007.62
2019-01-24T08:43:16.228Z,1007.59
2019-01-24T08:44:16.254Z,1007.62
2019-01-24T08:45:16.276Z,1007.62
2019-01-24T08:46:16.303Z,1007.58
2019-01-24T08:47:16.329Z,1007.58
2019-01-24T08:48:16.358Z,1007.63
2019-01-24T08:49:16.382Z,1007.64
2019-01-24T08:50:16.406Z,1007.63
2019-01-24T08:51:16.435Z,1007.63
2019-01-24T08:52:16.460Z,1007.60
2019-01-24T08:53:16.486Z,1007.63
2019-01-24T08:54:16.512Z,1007.65
2019-01-24T08:55:16.540Z,1007.64
2019-01-24T08:56:16.565Z,1007.66
2019-01-24T08:57:16.594Z,1007.68
2019-01-24T08:58:16.619Z,1007.67
2019-01-24T08:59:16.644Z,1007.67
2019-01-24T09:00:16.672Z,1007.68
2019-01-24T09:01:16.697Z,1007.68
2019-01-24T09:02:16.723Z,1007.70
2019-01-24T09:03:16.751Z,1007.71
2019-01-24T09:04:16.778Z,1007.74
2019-01-24T09:05:16.802Z,1007.76
2019-01-24T09:06:22.521Z,1007.78
2019-01-24T09:07:16.856Z,1007.72
2019-01-24T09:08:16.881Z,1007.73
2019-01-24T09:09:16.952Z,1007.70
2019-01-24T09:10:16.933Z,1007.73
2019-01-24T09:11:16.959Z,1007.72
2019-01-24T09:12:16.986Z,1007.74
2019-01-24T09:13:17.012Z,1007.71
2019-01-24T09:14:17.038Z,1007.69
2019-01-24T09:15:17.066Z,1007.69
2019-01-24T09:16:17.126Z,1007.69
2019-01-24T09:17:17.118Z,1007.65
2019-01-24T09:18:17.143Z,1007.70
2019-01-24T09:19:17.170Z,1007.66
2019-01-24T09:20:17.198Z,1007.67
2019-01-24T09:21:17.222Z,1007.66
2019-01-24T09:22:17.250Z,1007.67
2019-01-24T09:23:17.276Z,1007.74
2019-01-24T09:24:17.303Z,1007.72
2019-01-24T09:25:17.329Z,1007.67
2019-01-24T09:26:17.355Z,1007.77
2019-01-24T09:27:17.381Z,1007.73
2019-01-24T09:28:17.407Z,1007.73
2019-01-24T09:29:17.434Z,1007.80
2019-01-24T09:30:17.465Z,1007.73
2019-01-24T09:31:17.494Z,1007.70
2019-01-24T09:32:17.513Z,1007.71
2019-01-24T09:33:17.541Z,1007.64
2019-01-24T09:34:17.567Z,1007.61
2019-01-24T09:35:17.595Z,1007.63
2019-01-24T09:36:17.619Z,1007.68
2019-01-24T09:37:17.644Z,1007.68
2019-01-24T09:38:17.673Z,1007.70
2019-01-24T09:39:17.698Z,1007.70
2019-01-24T09:40:17.724Z,1007.75
2019-01-24T09:41:17.751Z,1007.77
2019-01-24T09:42:17.777Z,1007.82
2019-01-24T09:43:17.806Z,1007.80
2019-01-24T09:44:17.829Z,1007.78
2019-01-24T09:45:17.855Z,1007.80
2019-01-24T09:46:17.883Z,1007.80
2019-01-24T09:47:17.909Z,1007.77
2019-01-24T09:48:17.937Z,1007.83
2019-01-24T09:49:17.961Z,1007.83
2019-01-24T09:50:17.987Z,1007.80
2019-01-24T09:51:18.016Z,1007.80
2019-01-24T09:52:18.042Z,1007.82
2019-01-24T09:53:18.082Z,1007.87
2019-01-24T09:54:18.094Z,1007.91
2019-01-24T09:55:18.121Z,1007.87
2019-01-24T09:56:18.152Z,1007.90
2019-01-24T09:57:18.177Z,1007.87
2019-01-24T09:58:18.200Z,1007.86
2019-01-24T09:59:18.230Z,1007.85
2019-01-24T10:00:18.253Z,1007.79
2019-01-24T10:01:18.286Z,1007.76
2019-01-24T10:02:18.317Z,1007.77
2019-01-24T10:03:18.332Z,1007.80
2019-01-24T10:04:18.358Z,1007.76
2019-01-24T10:05:18.384Z,1007.79
2019-01-24T10:06:18.416Z,1007.79
2019-01-24T10:07:18.438Z,1007.82
2019-01-24T10:08:18.464Z,1007.83
2019-01-24T10:09:18.496Z,1007.89
2019-01-24T10:10:18.521Z,1007.90
2019-01-24T10:11:23.498Z,1007.87
2019-01-24T10:12:18.570Z,1007.87
2019-01-24T10:13:18.597Z,1007.88
2019-01-24T10:14:18.624Z,1007.84
2019-01-24T10:15:18.654Z,1007.88
2019-01-24T10:16:18.677Z,1007.84
2019-01-24T10:17:18.704Z,1007.76
2019-01-24T10:18:21.698Z,1007.82
2019-01-24T10:19:18.757Z,1007.79
2019-01-24T10:20:18.784Z,1007.76
2019-01-24T10:21:18.820Z,1007.76
2019-01-24T10:22:18.835Z,1007.78
2019-01-24T10:23:18.862Z,1007.77
2019-01-24T10:24:18.887Z,1007.82
2019-01-24T10:25:18.912Z,1007.82
2019-01-24T10:26:18.940Z,1007.82
2019-01-24T10:27:18.966Z,1007.85
2019-01-24T10:28:18.993Z,1007.85
2019-01-24T10:29:19.021Z,1007.93
2019-01-24T10:30:19.045Z,1007.93
2019-01-24T10:31:19.073Z,1007.94
2019-01-24T10:32:19.099Z,1007.95
2019-01-24T10:33:19.128Z,1007.97
2019-01-24T10:34:19.156Z,1007.91
2019-01-24T10:35:19.179Z,1007.93
2019-01-24T10:36:19.207Z,1007.95
2019-01-24T10:37:19.232Z,1007.99
2019-01-24T10:38:19.266Z,1007.99
2019-01-24T10:39:19.288Z,1007.96
2019-01-24T10:40:19.313Z,1007.99
2019-01-24T10:41:19.339Z,1007.96
2019-01-24T10:42:19.365Z,1008.00
2019-01-24T10:43:19.392Z,1007.99
2019-01-24T10:44:19.417Z,1008.00
2019-01-24T10:45:19.449Z,1008.01
2019-01-24T10:46:19.472Z,1008.02
2019-01-24T10:47:19.513Z,1008.03
2019-01-24T10:48:19.524Z,1007.98
2019-01-24T10:49:19.550Z,1007.99
2019-01-24T10:50:19.576Z,1008.00
2019-01-24T10:51:19.621Z,1008.01
2019-01-24T10:52:19.632Z,1008.01
2019-01-24T10:53:19.657Z,1007.96
2019-01-24T10:54:19.683Z,1007.97
2019-01-24T10:55:19.733Z,1008.01
2019-01-24T10:56:19.740Z,1007.95
2019-01-24T10:57:19.764Z,1007.92
2019-01-24T10:58:19.792Z,1007.94
2019-01-24T10:59:19.817Z,1007.91
2019-01-24T11:00:19.845Z,1007.94
2019-01-24T11:01:19.870Z,1007.94
2019-01-24T11:02:19.897Z,1007.91
2019-01-24T11:03:19.926Z,1007.94
2019-01-24T11:04:19.950Z,1007.92
2019-01-24T11:05:19.977Z,1007.89
2019-01-24T11:06:20.008Z,1007.89
2019-01-24T11:07:20.032Z,1007.92
2019-01-24T11:08:20.057Z,1007.91
2019-01-24T11:09:20.083Z,1007.89
2019-01-24T11:10:20.113Z,1007.92
2019-01-24T11:11:20.146Z,1007.93
2019-01-24T11:12:20.162Z,1007.90
2019-01-24T11:13:20.187Z,1007.94
2019-01-24T11:14:20.215Z,1007.96
2019-01-24T11:15:20.254Z,1007.95
2019-01-24T11:16:20.269Z,1007.97
2019-01-24T11:17:20.297Z,1008.02
2019-01-24T11:18:20.323Z,1008.01
2019-01-24T11:19:20.348Z,1008.03
2019-01-24T11:20:20.377Z,1008.04
2019-01-24T11:21:20.403Z,1008.06
2019-01-24T11:22:20.429Z,1008.02
2019-01-24T11:23:20.455Z,1008.01
2019-01-24T11:24:20.485Z,1008.04
2019-01-24T11:25:20.508Z,1008.07
2019-01-24T11:26:20.535Z,1008.04
2019-01-24T11:27:20.561Z,1008.05
2019-01-24T11:28:20.588Z,1007.99
2019-01-24T11:29:20.614Z,1007.99
2019-01-24T11:30:20.639Z,1008.01
2019-01-24T11:31:20.674Z,1008.03
2019-01-24T11:32:20.694Z,1008.00
2019-01-24T11:33:20.720Z,1008.04
2019-01-24T11:34:20.753Z,1008.06
2019-01-24T11:35:20.774Z,1008.02
2019-01-24T11:36:20.803Z,1008.01
2019-01-24T11:37:20.825Z,1007.99
2019-01-24T11:38:20.853Z,1008.02
2019-01-24T11:39:20.878Z,1008.02
2019-01-24T11:40:20.905Z,1008.06
2019-01-24T11:41:20.932Z,1008.03
2019-01-24T11:42:20.959Z,1008.05
2019-01-24T11:43:20.985Z,1008.08
2019-01-24T11:44:21.011Z,1008.06
2019-01-24T11:45:21.038Z,1008.11
2019-01-24T11:46:21.071Z,1008.08
2019-01-24T11:47:21.090Z,1008.08
2019-01-24T11:48:21.121Z,1008.06
2019-01-24T11:49:21.144Z,1008.05
2019-01-24T11:50:21.169Z,1008.09
2019-01-24T11:51:21.198Z,1008.09
2019-01-24T11:52:21.225Z,1008.10
2019-01-24T11:53:21.252Z,1008.07
2019-01-24T11:54:21.278Z,1008.07
2019-01-24T11:55:21.302Z,1008.06
2019-01-24T11:56:21.329Z,1008.06
2019-01-24T11:57:21.362Z,1008.04
2019-01-24T11:58:21.381Z,1008.06
2019-01-24T11:59:21.413Z,1008.06
2019-01-24T12:00:21.454Z,1008.05
2019-01-24T12:01:21.461Z,1008.07
2019-01-24T12:02:21.488Z,1008.08
2019-01-24T12:03:21.517Z,1008.12
2019-01-24T12:04:21.542Z,1008.12
2019-01-24T12:05:21.566Z,1008.14
2019-01-24T12:06:21.592Z,1008.12
2019-01-24T12:07:21.619Z,1008.14
2019-01-24T12:08:21.644Z,1008.14
2019-01-24T12:09:21.674Z,1008.15
2019-01-24T12:10:21.701Z,1008.16
2019-01-24T12:11:21.725Z,1008.14
2019-01-24T12:12:21.754Z,1008.17
2019-01-24T12:13:21.781Z,1008.17
2019-01-24T12:14:21.809Z,1008.14
2019-01-24T12:15:21.831Z,1008.12
2019-01-24T12:16:21.857Z,1008.08
2019-01-24T12:17:21.882Z,1008.07
2019-01-24T12:18:21.912Z,1008.11
2019-01-24T12:19:21.941Z,1008.11
2019-01-24T12:20:21.964Z,1008.09
2019-01-24T12:21:21.990Z,1008.07
2019-01-24T12:22:22.014Z,1008.10
2019-01-24T12:23:22.041Z,1008.10
2019-01-24T12:24:22.067Z,1008.05
2019-01-24T12:25:22.092Z,1008.07
2019-01-24T12:26:22.132Z,1008.10
2019-01-24T12:27:22.146Z,1008.09
2019-01-24T12:28:22.173Z,1008.08
2019-01-24T12:29:22.208Z,1008.09
2019-01-24T12:30:22.338Z,1008.05
2019-01-24T12:31:22.250Z,1008.04
2019-01-24T12:32:22.278Z,1008.00
2019-01-24T12:33:22.303Z,1008.00
2019-01-24T12:34:22.336Z,1008.00
2019-01-24T12:35:22.357Z,1008.03
2019-01-24T12:36:22.383Z,1007.98
2019-01-24T12:37:22.410Z,1007.96
2019-01-24T12:38:22.437Z,1008.03
2019-01-24T12:39:22.461Z,1008.01
2019-01-24T12:40:22.488Z,1008.00
2019-01-24T12:41:22.533Z,1007.96
2019-01-24T12:42:22.543Z,1008.00
2019-01-24T12:43:22.566Z,1008.01
2019-01-24T12:44:22.592Z,1007.98
2019-01-24T12:45:22.617Z,1007.92
2019-01-24T12:46:22.644Z,1007.95
2019-01-24T12:47:22.670Z,1007.96
2019-01-24T12:48:22.696Z,1007.95
2019-01-24T12:49:22.730Z,1007.97
2019-01-24T12:50:22.751Z,1008.00
2019-01-24T12:51:22.776Z,1008.07
2019-01-24T12:52:22.803Z,1008.02
2019-01-24T12:53:22.827Z,1008.03
2019-01-24T12:54:22.855Z,1008.10
2019-01-24T12:55:22.882Z,1008.09
2019-01-24T12:56:22.907Z,1008.11
2019-01-24T12:57:22.932Z,1008.08
2019-01-24T12:58:22.964Z,1008.10
2019-01-24T12:59:22.986Z,1008.11
2019-01-24T13:00:23.011Z,1008.13
2019-01-24T13:01:23.049Z,1008.13
2019-01-24T13:02:23.068Z,1008.08
2019-01-24T13:03:23.089Z,1008.14
2019-01-24T13:04:23.115Z,1008.07
2019-01-24T13:05:23.142Z,1008.06
2019-01-24T13:06:23.168Z,1008.06
2019-01-24T13:07:23.195Z,1008.03
2019-01-24T13:08:23.223Z,1008.05
2019-01-24T13:09:23.246Z,1008.03
2019-01-24T13:10:23.272Z,1007.98
2019-01-24T13:11:23.298Z,1007.99
2019-01-24T13:12:23.325Z,1007.97
2019-01-24T13:13:23.353Z,1008.01
2019-01-24T13:14:23.386Z,1008.00
2019-01-24T13:15:23.403Z,1007.99
2019-01-24T13:16:23.429Z,1007.95
2019-01-24T13:17:23.454Z,1007.98
2019-01-24T13:18:23.480Z,1007.98
2019-01-24T13:19:23.507Z,1008.00
2019-01-24T13:20:23.532Z,1008.04
2019-01-24T13:21:23.559Z,1007.98
2019-01-24T13:22:23.603Z,1008.01
2019-01-24T13:23:23.613Z,1008.02
2019-01-24T13:24:23.647Z,1007.99
2019-01-24T13:25:23.664Z,1007.99
2019-01-24T13:26:23.689Z,1007.99
2019-01-24T13:27:23.716Z,1007.99
2019-01-24T13:28:23.743Z,1008.01
2019-01-24T13:29:23.768Z,1007.99
2019-01-24T13:30:23.793Z,1008.02
2019-01-24T13:31:23.819Z,1008.05
2019-01-24T13:32:23.847Z,1008.04
2019-01-24T13:33:23.872Z,1008.01
2019-01-24T13:34:23.900Z,1008.03
2019-01-24T13:35:23.923Z,1008.02